Terminal Aerodrome Forecast
Issued by NWS Austin/San Antonio, TX

Home | Current Version | Previous Version | Text Only | Print | Product List | Glossary On
Versions: 1 2 3 4 5 6 7 8 9 10 11 12 13 14 15 16 17 18 19 20 21 22 23 24 25 26 27 28
000
FTUS44 KEWX 182339
TAFDRT
TAF
KDRT 182339Z 1900/1924 36006KT P6SM BKN250
     FM190100 VRB03KT P6SM BKN250
      TEMPO 1912/1916 1SM BR BKN005
     FM191700 29007KT P6SM FEW250=

USA.gov is the U.S. government's official web portal to all federal, state and local government web resources and services.